createdAt,value
2023-01-06T00:01:08.257Z,0.90
2023-01-06T00:03:36.139Z,0.50
2023-01-06T00:06:06.572Z,0.90
2023-01-06T00:08:34.797Z,0.65
2023-01-06T00:13:35.664Z,0.75
2023-01-06T00:16:14.845Z,0.65
2023-01-06T00:18:43.144Z,0.70
2023-01-06T00:21:11.176Z,0.60
2023-01-06T00:23:39.042Z,0.60
2023-01-06T00:26:07.365Z,0.75
2023-01-06T00:28:35.536Z,0.60
2023-01-06T00:33:33.982Z,0.52
2023-01-06T00:36:01.300Z,0.70
2023-01-06T00:38:28.741Z,0.60
2023-01-06T00:40:56.193Z,0.60
2023-01-06T00:43:22.982Z,0.80
2023-01-06T00:45:52.228Z,0.60
2023-01-06T00:48:19.971Z,0.50
2023-01-06T00:50:46.715Z,0.95
2023-01-06T00:53:13.513Z,0.50
2023-01-06T00:55:40.725Z,1.20
2023-01-06T00:58:07.561Z,0.60
2023-01-06T01:00:34.451Z,0.50
2023-01-06T01:03:01.266Z,0.85
2023-01-06T01:05:28.061Z,0.60
2023-01-06T01:07:54.842Z,0.88
2023-01-06T01:10:21.615Z,0.60
2023-01-06T01:12:48.436Z,1.02
2023-01-06T01:15:15.252Z,0.82
2023-01-06T01:17:41.988Z,0.60
2023-01-06T01:20:09.421Z,0.60
2023-01-06T01:22:36.213Z,0.88
2023-01-06T01:25:03.111Z,0.50
2023-01-06T01:27:29.891Z,0.60
2023-01-06T01:29:56.656Z,0.60
2023-01-06T01:32:23.418Z,0.82
2023-01-06T01:34:50.200Z,0.52
2023-01-06T01:37:17.202Z,0.88
2023-01-06T01:39:46.103Z,0.60
2023-01-06T01:42:19.492Z,0.65
2023-01-06T01:44:55.737Z,0.50
2023-01-06T01:47:44.273Z,1.13
2023-01-06T01:50:23.056Z,0.60
2023-01-06T01:52:53.193Z,0.50
2023-01-06T01:55:20.968Z,0.60
2023-01-06T01:58:04.261Z,1.38
2023-01-06T02:00:31.052Z,0.70
2023-01-06T02:02:58.427Z,0.50
2023-01-06T02:05:27.284Z,0.55
2023-01-06T02:07:57.545Z,0.60
2023-01-06T02:10:24.966Z,0.60
2023-01-06T02:12:55.998Z,0.60
2023-01-06T02:15:34.173Z,0.60
2023-01-06T02:18:22.260Z,0.60
2023-01-06T02:21:15.279Z,0.63
2023-01-06T02:24:32.244Z,1.25
2023-01-06T02:27:19.564Z,0.57
2023-01-06T02:29:56.236Z,0.47
2023-01-06T02:32:52.170Z,0.60
2023-01-06T02:35:44.961Z,1.67
2023-01-06T02:38:39.468Z,0.60
2023-01-06T02:41:38.283Z,0.60
2023-01-06T02:44:07.814Z,0.63
2023-01-06T02:46:52.142Z,1.20
2023-01-06T02:49:31.202Z,0.60
2023-01-06T02:52:20.674Z,0.75
2023-01-06T02:54:54.029Z,0.50
2023-01-06T02:57:39.198Z,0.52
2023-01-06T03:00:28.999Z,0.60
2023-01-06T03:03:09.994Z,0.52
2023-01-06T03:05:38.620Z,0.50
2023-01-06T03:08:09.954Z,0.50
2023-01-06T03:10:38.165Z,1.13
2023-01-06T03:15:41.524Z,0.52
2023-01-06T03:18:08.734Z,0.60
2023-01-06T03:20:36.624Z,0.68
2023-01-06T03:23:03.638Z,0.65
2023-01-06T03:25:30.542Z,0.52
2023-01-06T03:27:57.347Z,0.60
2023-01-06T03:30:33.814Z,0.40
2023-01-06T03:33:08.664Z,0.55
2023-01-06T03:35:52.113Z,0.55
2023-01-06T03:38:32.215Z,0.50
2023-01-06T03:41:49.363Z,0.50
2023-01-06T03:44:29.593Z,0.65
2023-01-06T03:47:05.629Z,0.60
2023-01-06T03:49:39.149Z,0.50
2023-01-06T03:52:23.844Z,0.60
2023-01-06T03:54:54.846Z,0.57
2023-01-06T03:57:34.621Z,1.13
2023-01-06T04:00:26.988Z,0.50
2023-01-06T04:02:53.896Z,0.50
2023-01-06T04:05:24.273Z,0.52
2023-01-06T04:07:51.301Z,1.80
2023-01-06T04:10:19.963Z,0.50
2023-01-06T04:12:46.767Z,0.60
2023-01-06T04:15:29.228Z,0.50
2023-01-06T04:17:56.685Z,0.80
2023-01-06T04:20:29.447Z,1.17
2023-01-06T04:22:57.549Z,0.60
2023-01-06T04:25:25.651Z,0.40
2023-01-06T04:30:19.102Z,0.50
2023-01-06T04:32:45.870Z,0.55
2023-01-06T04:35:12.636Z,0.60
2023-01-06T04:37:39.502Z,0.50
2023-01-06T04:40:07.772Z,0.55
2023-01-06T04:42:55.337Z,0.50
2023-01-06T04:45:22.648Z,0.57
2023-01-06T04:47:49.593Z,0.50
2023-01-06T04:50:16.516Z,0.60
2023-01-06T04:52:43.326Z,0.30
2023-01-06T04:55:10.201Z,0.68
2023-01-06T04:57:39.571Z,0.50
2023-01-06T05:00:07.341Z,0.40
2023-01-06T05:02:34.324Z,0.50
2023-01-06T05:05:01.108Z,0.50
2023-01-06T05:07:27.855Z,0.57
2023-01-06T05:09:54.658Z,0.50
2023-01-06T05:12:21.874Z,0.50
2023-01-06T05:14:48.667Z,0.60
2023-01-06T05:17:15.641Z,0.50
2023-01-06T05:19:45.483Z,0.68
2023-01-06T05:22:12.661Z,0.50
2023-01-06T05:24:39.530Z,0.65
2023-01-06T05:27:06.745Z,0.65
2023-01-06T05:29:34.165Z,0.38
2023-01-06T05:32:01.152Z,0.40
2023-01-06T05:34:28.260Z,0.43
2023-01-06T05:36:56.037Z,0.90
2023-01-06T05:39:23.040Z,1.65
2023-01-06T05:41:49.930Z,0.55
2023-01-06T05:44:16.880Z,0.40
2023-01-06T05:46:44.365Z,0.40
2023-01-06T05:49:11.160Z,0.50
2023-01-06T05:51:37.916Z,0.50
2023-01-06T05:54:08.606Z,0.40
2023-01-06T05:56:35.646Z,0.50
2023-01-06T05:59:02.969Z,0.40
2023-01-06T06:01:32.424Z,0.30
2023-01-06T06:03:59.463Z,0.50
2023-01-06T06:06:28.076Z,0.43
2023-01-06T06:08:54.903Z,0.50
2023-01-06T06:11:22.525Z,0.50
2023-01-06T06:13:51.779Z,0.80
2023-01-06T06:16:20.681Z,0.50
2023-01-06T06:18:52.723Z,0.60
2023-01-06T06:21:22.299Z,0.40
2023-01-06T06:23:50.195Z,0.40
2023-01-06T06:26:17.669Z,0.40
2023-01-06T06:28:45.072Z,0.50
2023-01-06T06:31:24.371Z,0.50
2023-01-06T06:33:53.829Z,0.50
2023-01-06T06:36:21.494Z,0.50
2023-01-06T06:38:50.891Z,0.40
2023-01-06T06:41:19.711Z,1.42
2023-01-06T06:43:47.798Z,0.50
2023-01-06T06:48:41.530Z,0.40
2023-01-06T06:51:10.714Z,0.40
2023-01-06T06:53:38.259Z,0.30
2023-01-06T06:56:06.619Z,0.30
2023-01-06T06:58:36.988Z,0.40
2023-01-06T07:01:12.199Z,0.50
2023-01-06T07:03:39.472Z,0.40
2023-01-06T07:06:08.936Z,0.40
2023-01-06T07:08:36.225Z,0.50
2023-01-06T07:11:03.442Z,0.40
2023-01-06T07:13:30.248Z,0.40
2023-01-06T07:15:57.137Z,0.38
2023-01-06T07:18:26.475Z,0.35
2023-01-06T07:20:54.094Z,0.40
2023-01-06T07:23:22.066Z,0.40
2023-01-06T07:25:57.007Z,1.02
2023-01-06T07:28:24.645Z,0.30
2023-01-06T07:30:51.808Z,0.40
2023-01-06T07:33:20.343Z,0.63
2023-01-06T07:35:47.556Z,0.40
2023-01-06T07:38:14.323Z,0.40
2023-01-06T07:40:41.086Z,0.40
2023-01-06T07:43:10.236Z,0.40
2023-01-06T07:45:37.797Z,0.65
2023-01-06T07:48:05.155Z,0.40
2023-01-06T07:50:32.917Z,0.40
2023-01-06T07:53:01.562Z,0.40
2023-01-06T07:55:29.953Z,0.30
2023-01-06T07:57:58.648Z,0.40
2023-01-06T08:00:26.049Z,0.30
2023-01-06T08:02:55.140Z,0.40
2023-01-06T08:05:22.031Z,0.40
2023-01-06T08:07:48.942Z,0.40
2023-01-06T08:10:15.993Z,0.40
2023-01-06T08:12:42.754Z,0.30
2023-01-06T08:15:09.748Z,0.40
2023-01-06T08:17:36.551Z,1.33
2023-01-06T08:20:03.635Z,0.30
2023-01-06T08:22:30.447Z,0.30
2023-01-06T08:24:57.220Z,0.38
2023-01-06T08:27:24.223Z,0.30
2023-01-06T08:29:52.139Z,0.40
2023-01-06T08:32:18.915Z,0.40
2023-01-06T08:34:45.658Z,0.40
2023-01-06T08:37:12.421Z,0.35
2023-01-06T08:39:39.190Z,0.40
2023-01-06T08:42:07.140Z,0.52
2023-01-06T08:44:33.999Z,0.30
2023-01-06T08:47:00.760Z,0.40
2023-01-06T08:49:27.548Z,0.40
2023-01-06T08:51:54.434Z,0.40
2023-01-06T08:54:21.497Z,0.40
2023-01-06T08:56:48.433Z,0.40
2023-01-06T08:59:17.179Z,0.40
2023-01-06T09:01:44.801Z,0.30
2023-01-06T09:04:12.992Z,0.40
2023-01-06T09:06:42.642Z,0.40
2023-01-06T09:09:12.011Z,0.40
2023-01-06T09:11:41.663Z,0.40
2023-01-06T09:14:10.056Z,0.40
2023-01-06T09:16:36.816Z,0.82
2023-01-06T09:19:03.641Z,0.38
2023-01-06T09:21:30.519Z,0.40
2023-01-06T09:23:57.341Z,0.75
2023-01-06T09:26:24.124Z,0.30
2023-01-06T09:28:50.923Z,0.47
2023-01-06T09:31:18.418Z,0.30
2023-01-06T09:33:45.296Z,0.32
2023-01-06T09:36:12.096Z,0.40
2023-01-06T09:38:39.147Z,0.30
2023-01-06T09:41:29.234Z,0.30
2023-01-06T09:44:04.850Z,0.30
2023-01-06T09:46:37.759Z,0.40
2023-01-06T09:49:28.593Z,0.47
2023-01-06T09:51:59.692Z,0.40
2023-01-06T09:54:34.976Z,0.32
2023-01-06T09:57:12.928Z,0.40
2023-01-06T09:59:52.136Z,0.30
2023-01-06T10:02:28.767Z,0.40
2023-01-06T10:04:55.734Z,0.40
2023-01-06T10:07:31.511Z,0.30
2023-01-06T10:10:04.110Z,0.30
2023-01-06T10:13:03.563Z,0.40
2023-01-06T10:15:51.039Z,0.38
2023-01-06T10:18:20.468Z,0.40
2023-01-06T10:21:11.439Z,0.30
2023-01-06T10:23:47.218Z,0.38
2023-01-06T10:26:22.999Z,0.40
2023-01-06T10:28:54.215Z,0.40
2023-01-06T10:31:27.915Z,0.30
2023-01-06T10:33:56.933Z,1.00
2023-01-06T10:36:46.027Z,0.30
2023-01-06T10:39:25.318Z,0.40
2023-01-06T10:42:39.237Z,0.30
2023-01-06T10:45:11.490Z,0.40
2023-01-06T10:47:39.637Z,0.40
2023-01-06T10:52:35.582Z,0.53
2023-01-06T10:55:05.291Z,0.35
2023-01-06T10:57:39.579Z,0.35
2023-01-06T11:00:18.490Z,0.40
2023-01-06T11:02:50.558Z,0.40
2023-01-06T11:05:23.755Z,0.30
2023-01-06T11:08:07.817Z,0.30
2023-01-06T11:10:34.534Z,0.30
2023-01-06T11:13:03.614Z,0.30
2023-01-06T11:15:41.441Z,0.40
2023-01-06T11:18:38.115Z,0.40
2023-01-06T11:21:16.317Z,0.40
2023-01-06T11:23:46.590Z,0.35
2023-01-06T11:26:19.425Z,0.30
2023-01-06T11:28:48.501Z,0.30
2023-01-06T11:31:17.196Z,0.40
2023-01-06T11:33:53.807Z,0.30
2023-01-06T11:36:22.910Z,0.40
2023-01-06T11:39:01.943Z,0.40
2023-01-06T11:41:32.712Z,0.30
2023-01-06T11:44:25.438Z,0.40
2023-01-06T11:46:57.320Z,0.40
2023-01-06T11:49:30.258Z,0.32
2023-01-06T11:52:02.893Z,0.30
2023-01-06T11:54:40.115Z,0.40
2023-01-06T11:57:16.038Z,0.30
2023-01-06T12:00:05.914Z,0.30
2023-01-06T12:02:52.956Z,0.40
2023-01-06T12:05:46.079Z,0.30
2023-01-06T12:08:25.331Z,0.40
2023-01-06T12:11:21.439Z,0.38
2023-01-06T12:14:08.306Z,0.30
2023-01-06T12:17:05.282Z,0.40
2023-01-06T12:19:56.146Z,0.35
2023-01-06T12:22:38.722Z,0.40
2023-01-06T12:25:11.725Z,0.22
2023-01-06T12:28:02.469Z,0.52
2023-01-06T12:31:05.497Z,0.32
2023-01-06T12:33:32.247Z,0.38
2023-01-06T12:36:04.029Z,0.40
2023-01-06T12:38:56.164Z,0.30
2023-01-06T12:41:37.992Z,0.40
2023-01-06T12:44:19.706Z,0.40
2023-01-06T12:46:50.838Z,0.32
2023-01-06T12:49:30.712Z,0.40
2023-01-06T12:52:03.696Z,0.60
2023-01-06T12:54:35.341Z,0.40
2023-01-06T12:57:23.742Z,0.40
2023-01-06T13:00:21.609Z,0.30
2023-01-06T13:02:59.741Z,0.40
2023-01-06T13:05:41.504Z,0.30
2023-01-06T13:08:39.146Z,0.40
2023-01-06T13:11:14.988Z,0.32
2023-01-06T13:13:53.733Z,0.40
2023-01-06T13:16:50.888Z,0.30
2023-01-06T13:19:29.806Z,0.40
2023-01-06T13:22:00.404Z,0.40
2023-01-06T13:24:36.173Z,0.40
2023-01-06T13:27:25.032Z,0.70
2023-01-06T13:29:55.481Z,1.33
2023-01-06T13:32:42.587Z,3.00
2023-01-06T13:35:27.194Z,2.47
2023-01-06T13:38:11.427Z,2.55
2023-01-06T13:40:40.589Z,4.35
2023-01-06T13:43:21.021Z,2.05
2023-01-06T13:45:52.276Z,4.47
2023-01-06T13:48:24.715Z,2.08
2023-01-06T13:50:54.167Z,4.30
2023-01-06T13:53:23.409Z,4.63
2023-01-06T13:56:13.541Z,6.35
2023-01-06T13:58:41.831Z,5.18
2023-01-06T14:01:19.429Z,5.38
2023-01-06T14:03:49.506Z,5.63
2023-01-06T14:11:47.922Z,3.15
2023-01-06T14:14:28.388Z,4.10
2023-01-06T14:16:57.125Z,5.55
2023-01-06T14:19:39.808Z,3.90
2023-01-06T14:22:16.388Z,4.25
2023-01-06T14:24:59.565Z,10.45
2023-01-06T14:27:48.186Z,5.53
2023-01-06T14:30:32.248Z,7.40
2023-01-06T14:33:38.977Z,7.15
2023-01-06T14:36:14.776Z,3.25
2023-01-06T14:38:48.478Z,5.60
2023-01-06T14:41:35.542Z,6.85
2023-01-06T14:44:17.080Z,4.87
2023-01-06T14:46:50.904Z,5.07
2023-01-06T14:49:29.957Z,4.68
2023-01-06T14:51:59.455Z,7.18
2023-01-06T14:54:31.674Z,7.93
2023-01-06T14:57:00.749Z,5.50
2023-01-06T14:59:27.718Z,5.85
2023-01-06T15:02:03.432Z,5.95
2023-01-06T15:04:35.362Z,2.75
2023-01-06T15:07:19.888Z,4.38
2023-01-06T15:09:48.849Z,4.97
2023-01-06T15:12:27.356Z,5.03
2023-01-06T15:14:54.311Z,5.85
2023-01-06T15:17:21.864Z,4.70
2023-01-06T15:19:51.114Z,4.55
2023-01-06T15:22:25.474Z,7.25
2023-01-06T15:24:52.468Z,9.65
2023-01-06T15:27:19.596Z,9.60
2023-01-06T15:29:55.052Z,8.40
2023-01-06T15:32:26.553Z,8.25
2023-01-06T15:34:56.715Z,7.18
2023-01-06T15:37:31.014Z,8.98
2023-01-06T15:39:58.306Z,11.18
2023-01-06T15:42:28.032Z,12.83
2023-01-06T15:44:56.690Z,15.63
2023-01-06T15:47:32.317Z,11.13
2023-01-06T15:50:06.887Z,8.73
2023-01-06T15:52:39.646Z,9.90
2023-01-06T15:55:23.228Z,10.32
2023-01-06T15:57:59.352Z,14.82
2023-01-06T16:00:29.695Z,12.05
2023-01-06T16:02:56.745Z,11.65
2023-01-06T16:05:42.915Z,8.38
2023-01-06T16:08:24.285Z,8.32
2023-01-06T16:11:41.513Z,11.98
2023-01-06T16:14:35.724Z,11.63
2023-01-06T16:17:13.195Z,9.65
2023-01-06T16:19:49.764Z,7.35
2023-01-06T16:22:37.310Z,10.48
2023-01-06T16:25:32.621Z,10.70
2023-01-06T16:28:03.260Z,13.25
2023-01-06T16:30:33.590Z,9.50
2023-01-06T16:33:00.920Z,8.60
2023-01-06T16:35:30.131Z,10.83
2023-01-06T16:37:57.077Z,10.35
2023-01-06T16:40:25.473Z,8.65
2023-01-06T16:43:02.156Z,9.07
2023-01-06T16:45:34.452Z,7.55
2023-01-06T16:48:01.468Z,8.20
2023-01-06T16:50:38.859Z,7.95
2023-01-06T16:53:11.786Z,13.50
2023-01-06T16:55:40.062Z,12.85
2023-01-06T17:00:51.498Z,8.45
2023-01-06T17:03:21.609Z,10.52
2023-01-06T17:05:48.781Z,5.55
2023-01-06T17:08:18.180Z,9.02
2023-01-06T17:10:45.320Z,6.45
2023-01-06T17:13:34.870Z,5.50
2023-01-06T17:16:13.295Z,6.45
2023-01-06T17:18:49.909Z,6.68
2023-01-06T17:21:19.646Z,6.38
2023-01-06T17:23:57.801Z,8.18
2023-01-06T17:26:25.548Z,5.65
2023-01-06T17:28:54.199Z,4.03
2023-01-06T17:31:35.581Z,4.35
2023-01-06T17:34:11.103Z,8.63
2023-01-06T17:36:39.914Z,5.07
2023-01-06T17:39:19.556Z,7.45
2023-01-06T17:41:46.433Z,6.80
2023-01-06T17:44:19.630Z,6.35
2023-01-06T17:46:47.577Z,2.92
2023-01-06T17:49:20.321Z,4.65
2023-01-06T17:51:49.318Z,5.78
2023-01-06T17:54:40.035Z,5.05
2023-01-06T17:57:20.614Z,4.30
2023-01-06T17:59:49.740Z,4.70
2023-01-06T18:02:41.813Z,3.17
2023-01-06T18:05:30.535Z,8.63
2023-01-06T18:08:07.407Z,3.53
2023-01-06T18:10:39.687Z,6.15
2023-01-06T18:13:36.812Z,4.35
2023-01-06T18:16:13.689Z,5.38
2023-01-06T18:18:41.439Z,4.28
2023-01-06T18:21:16.991Z,4.45
2023-01-06T18:23:45.227Z,4.55
2023-01-06T18:26:34.005Z,3.97
2023-01-06T18:29:11.267Z,4.15
2023-01-06T18:31:39.799Z,6.05
2023-01-06T18:34:43.062Z,8.48
2023-01-06T18:37:09.959Z,7.10
2023-01-06T18:39:46.317Z,8.70
2023-01-06T18:42:29.661Z,5.07
2023-01-06T18:45:23.088Z,7.40
2023-01-06T18:47:54.953Z,5.72
2023-01-06T18:50:49.119Z,5.55
2023-01-06T18:53:22.792Z,5.38
2023-01-06T18:55:51.315Z,5.72
2023-01-06T18:58:47.036Z,5.50
2023-01-06T19:01:19.592Z,7.03
2023-01-06T19:04:29.115Z,6.15
2023-01-06T19:07:01.199Z,8.55
2023-01-06T19:09:37.962Z,18.38
2023-01-06T19:12:32.500Z,17.98
2023-01-06T19:15:18.927Z,24.70
2023-01-06T19:17:46.676Z,34.60
2023-01-06T19:20:19.494Z,36.72
2023-01-06T19:22:47.768Z,28.50
2023-01-06T19:25:33.727Z,33.60
2023-01-06T19:28:05.041Z,23.33
2023-01-06T19:30:48.135Z,29.58
2023-01-06T19:33:27.680Z,32.85
2023-01-06T19:36:06.497Z,39.25
2023-01-06T19:38:42.234Z,35.13
2023-01-06T19:41:29.019Z,34.25
2023-01-06T19:44:09.336Z,28.73
2023-01-06T19:46:38.671Z,28.83
2023-01-06T19:49:20.842Z,31.27
2023-01-06T19:51:50.954Z,32.70
2023-01-06T19:54:28.310Z,22.85
2023-01-06T19:56:56.900Z,22.40
2023-01-06T19:59:31.979Z,25.75
2023-01-06T20:02:04.054Z,19.40
2023-01-06T20:04:31.514Z,20.23
2023-01-06T20:06:58.837Z,20.05
2023-01-06T20:09:26.105Z,15.73
2023-01-06T20:11:52.978Z,14.95
2023-01-06T20:14:20.179Z,14.30
2023-01-06T20:16:47.680Z,15.50
2023-01-06T20:19:15.769Z,14.70
2023-01-06T20:24:11.418Z,12.10
2023-01-06T20:29:05.939Z,14.35
2023-01-06T20:31:33.369Z,11.40
2023-01-06T20:34:00.847Z,11.30
2023-01-06T20:36:30.117Z,7.78
2023-01-06T20:38:56.901Z,10.88
2023-01-06T20:41:23.754Z,12.40
2023-01-06T20:43:50.552Z,9.05
2023-01-06T20:46:17.886Z,11.30
2023-01-06T20:48:45.249Z,8.20
2023-01-06T20:51:12.541Z,8.23
2023-01-06T20:53:39.364Z,11.77
2023-01-06T20:56:06.606Z,9.73
2023-01-06T20:58:33.486Z,11.65
2023-01-06T21:01:00.834Z,11.52
2023-01-06T21:03:27.604Z,9.25
2023-01-06T21:05:54.381Z,10.73
2023-01-06T21:08:21.246Z,9.07
2023-01-06T21:10:48.055Z,11.98
2023-01-06T21:13:15.483Z,10.50
2023-01-06T21:15:45.132Z,7.68
2023-01-06T21:18:11.869Z,11.05
2023-01-06T21:20:38.678Z,15.85
2023-01-06T21:23:06.003Z,8.77
2023-01-06T21:25:32.863Z,8.25
2023-01-06T21:27:59.705Z,15.05
2023-01-06T21:30:28.295Z,7.32
2023-01-06T21:32:55.828Z,7.95
2023-01-06T21:35:23.105Z,7.90
2023-01-06T21:37:49.994Z,6.80
2023-01-06T21:40:16.900Z,6.70
2023-01-06T21:43:02.265Z,10.50
2023-01-06T21:45:29.172Z,6.05
2023-01-06T21:47:56.064Z,8.18
2023-01-06T21:50:25.437Z,7.55
2023-01-06T21:52:56.341Z,5.78
2023-01-06T21:55:23.653Z,5.28
2023-01-06T21:57:52.989Z,7.40
2023-01-06T22:00:20.269Z,4.40
2023-01-06T22:02:48.229Z,7.93
2023-01-06T22:07:46.252Z,2.42
2023-01-06T22:10:15.797Z,4.03
2023-01-06T22:12:45.913Z,2.63
2023-01-06T22:15:16.105Z,3.78
2023-01-06T22:17:43.028Z,3.47
2023-01-06T22:20:11.199Z,3.90
2023-01-06T22:25:06.812Z,2.65
2023-01-06T22:30:00.331Z,2.28
2023-01-06T22:32:28.383Z,4.78
2023-01-06T22:37:21.875Z,3.60
2023-01-06T22:39:49.291Z,3.47
2023-01-06T22:42:16.541Z,3.30
2023-01-06T22:44:43.363Z,6.07
2023-01-06T22:47:10.202Z,2.72
2023-01-06T22:49:36.971Z,3.47
2023-01-06T22:52:03.922Z,3.85
2023-01-06T22:54:30.774Z,2.25
2023-01-06T22:56:57.550Z,5.32
2023-01-06T22:59:24.369Z,3.50
2023-01-06T23:01:51.264Z,4.25
2023-01-06T23:04:18.094Z,3.47
2023-01-06T23:06:44.962Z,2.53
2023-01-06T23:09:11.765Z,4.60
2023-01-06T23:11:43.776Z,2.55
2023-01-06T23:14:12.278Z,1.90
2023-01-06T23:16:40.917Z,2.47
2023-01-06T23:19:11.009Z,1.67
2023-01-06T23:21:37.820Z,1.75
2023-01-06T23:24:05.392Z,2.08
2023-01-06T23:26:37.226Z,2.20
2023-01-06T23:29:04.776Z,2.65
2023-01-06T23:31:34.104Z,4.30
2023-01-06T23:34:08.640Z,2.05
2023-01-06T23:36:38.858Z,3.25
2023-01-06T23:39:08.005Z,1.65
2023-01-06T23:41:36.837Z,2.45
2023-01-06T23:44:04.428Z,2.05
2023-01-06T23:46:38.345Z,1.80
2023-01-06T23:49:06.827Z,1.92
2023-01-06T23:51:34.225Z,1.65
2023-01-06T23:54:03.086Z,1.13
2023-01-06T23:56:32.612Z,3.15
2023-01-06T23:59:00.757Z,1.15
